createdAt,value
2019-02-24T00:00:02.791Z,-2.8
2019-02-24T00:15:20.223Z,-3.4
2019-02-24T00:30:02.877Z,-3.2
2019-02-24T00:45:03.399Z,-3
2019-02-24T01:00:02.655Z,-3.2
2019-02-24T01:15:03.142Z,-3.2
2019-02-24T01:30:02.744Z,-3.6
2019-02-24T01:45:03.204Z,-3.3
2019-02-24T02:00:02.497Z,-3.5
2019-02-24T02:15:02.820Z,-3.5
2019-02-24T02:30:03.445Z,-3.8
2019-02-24T02:45:02.807Z,-3.6
2019-02-24T03:00:02.975Z,-3.8
2019-02-24T03:15:03.184Z,-3.9
2019-02-24T03:30:02.745Z,-4
2019-02-24T03:45:03.331Z,-4.1
2019-02-24T04:00:02.805Z,-4.1
2019-02-24T04:15:02.997Z,-4.6
2019-02-24T04:30:03.324Z,-4.4
2019-02-24T04:45:02.575Z,-4.3
2019-02-24T05:00:03.330Z,-4.2
2019-02-24T05:15:02.653Z,-4.1
2019-02-24T05:30:02.925Z,-4.5
2019-02-24T05:45:02.392Z,-4.8
2019-02-24T06:00:02.714Z,-4.7
2019-02-24T06:15:03.073Z,-4.6
2019-02-24T06:30:05.170Z,-4.6
2019-02-24T06:45:03.014Z,-4
2019-02-24T07:00:02.818Z,-3.8
2019-02-24T07:15:02.577Z,-3.2
2019-02-24T07:30:02.902Z,-2.8
2019-02-24T07:45:03.129Z,-2.1
2019-02-24T08:00:03.456Z,-1.4
2019-02-24T08:15:02.808Z,-1.1
2019-02-24T08:30:03.125Z,-0.1
2019-02-24T08:45:02.495Z,-0.3
2019-02-24T09:00:02.696Z,0.4
2019-02-24T09:15:03.127Z,1
2019-02-24T09:30:02.637Z,1.6
2019-02-24T09:45:03.047Z,2.5
2019-02-24T10:00:03.301Z,3.1
2019-02-24T10:15:03.352Z,3.6
2019-02-24T10:30:02.898Z,3.4
2019-02-24T10:45:03.065Z,3.6
2019-02-24T11:00:02.543Z,3.8
2019-02-24T11:15:02.792Z,4.2
2019-02-24T11:30:03.454Z,3.9
2019-02-24T11:45:02.736Z,3.8
2019-02-24T12:00:02.983Z,3.9
2019-02-24T12:15:03.303Z,4.3
2019-02-24T12:30:02.767Z,4.8
2019-02-24T12:45:03.166Z,4.9
2019-02-24T13:00:02.515Z,5.2
2019-02-24T13:15:03.376Z,5
2019-02-24T13:30:03.144Z,5.9
2019-02-24T13:45:03.430Z,6
2019-02-24T14:00:02.772Z,5.4
2019-02-24T14:15:02.914Z,5.9
2019-02-24T14:30:03.260Z,5.8
2019-02-24T14:45:03.231Z,5.9
2019-02-24T15:00:02.893Z,6.2
2019-02-24T15:15:03.039Z,6.4
2019-02-24T15:30:02.592Z,6.1
2019-02-24T15:45:03.047Z,6.1
2019-02-24T16:00:03.272Z,6
2019-02-24T16:15:02.894Z,5.6
2019-02-24T16:30:03.236Z,5.2
2019-02-24T16:45:02.478Z,4.2
2019-02-24T17:00:02.770Z,3.6
2019-02-24T17:15:04.406Z,2.9
2019-02-24T17:30:02.495Z,2.4
2019-02-24T17:45:02.815Z,2
2019-02-24T18:00:03.299Z,1.8
2019-02-24T18:15:02.575Z,1.3
2019-02-24T18:30:03.047Z,1
2019-02-24T18:45:03.254Z,0.7
2019-02-24T19:00:02.731Z,0.4
2019-02-24T19:15:02.976Z,0.2
2019-02-24T19:30:03.358Z,0
2019-02-24T19:45:02.568Z,-0.1
2019-02-24T20:00:03.045Z,-0.4
2019-02-24T20:15:02.535Z,-0.8
2019-02-24T20:30:03.464Z,-0.8
2019-02-24T20:45:02.734Z,-0.9
2019-02-24T21:00:02.990Z,-1.1
2019-02-24T21:15:03.246Z,-1.4
2019-02-24T21:30:02.742Z,-1.2
2019-02-24T21:45:03.070Z,-1.6
2019-02-24T22:00:03.292Z,-1.8
2019-02-24T22:15:02.562Z,-1.6
2019-02-24T22:30:02.995Z,-1.9
2019-02-24T22:45:03.415Z,-1.8
2019-02-24T23:00:03.252Z,-1.9
2019-02-24T23:15:03.340Z,-2.1
2019-02-24T23:30:02.810Z,-1.8
2019-02-24T23:45:44.871Z,-2.2
